Time;durP1;ratioP1;P1;durP2;ratioP2;P2;SDS_P1;SDS_P2;PMS_P1;PMS_P2;Temp;Humidity;BMP_temperature;BMP_pressure;BME280_temperature;BME280_humidity;BME280_pressure;Samples;Min_cycle;Max_cycle;Signal;HPM_P1;HPM_P2
2022/04/14 00:00:29;;;;;;;28.15;14.57;;;;;;;10.29;100.00;99386.72;4818621;29;20030;-85
2022/04/14 00:02:55;;;;;;;23.73;12.90;;;;;;;10.65;100.00;99429.75;4823993;29;20087;-86
2022/04/14 00:05:21;;;;;;;22.92;13.27;;;;;;;10.65;100.00;99419.25;4825824;29;20074;-86
2022/04/14 00:07:47;;;;;;;24.88;12.68;;;;;;;10.51;100.00;99402.53;4805475;29;20047;-88
2022/04/14 00:10:14;;;;;;;32.10;15.73;;;;;;;10.67;100.00;99418.06;4790050;29;20524;-85
2022/04/14 00:12:40;;;;;;;31.20;14.73;;;;;;;10.69;100.00;99418.69;4787318;29;20067;-87
2022/04/14 00:15:08;;;;;;;28.92;14.85;;;;;;;10.63;100.00;99411.56;4783251;29;20034;-86
2022/04/14 00:17:34;;;;;;;32.25;17.42;;;;;;;10.76;100.00;99434.53;4802821;29;20030;-85
2022/04/14 00:20:09;;;;;;;27.05;14.60;;;;;;;10.75;100.00;99421.56;4828934;29;20550;-87
2022/04/14 00:22:36;;;;;;;25.52;14.20;;;;;;;10.70;100.00;99427.38;4812762;29;20034;-87
2022/04/14 00:25:03;;;;;;;28.35;14.20;;;;;;;10.45;100.00;99393.59;4779238;29;20039;-84
2022/04/14 00:27:29;;;;;;;25.95;15.27;;;;;;;10.63;100.00;99422.06;4783038;29;20038;-87
2022/04/14 00:29:54;;;;;;;23.58;13.32;;;;;;;10.57;100.00;99412.28;4814886;29;20042;-85
2022/04/14 00:32:20;;;;;;;25.88;13.90;;;;;;;10.58;100.00;99416.53;4796913;29;20034;-85
2022/04/14 00:34:45;;;;;;;24.00;13.57;;;;;;;10.52;100.00;99425.16;4801120;29;20031;-86
2022/04/14 00:37:11;;;;;;;20.45;12.50;;;;;;;10.34;100.00;99413.22;4811476;29;20490;-86
2022/04/14 00:39:38;;;;;;;27.75;15.18;;;;;;;10.13;100.00;99406.13;4812862;29;20122;-84
2022/04/14 00:42:13;;;;;;;22.88;13.48;;;;;;;10.19;100.00;99436.03;4795566;29;20122;-83
2022/04/14 00:44:40;;;;;;;27.90;14.23;;;;;;;10.20;100.00;99435.03;4823275;29;20122;-86
2022/04/14 00:47:06;;;;;;;23.88;13.55;;;;;;;10.22;100.00;99441.72;4810873;29;20457;-86
2022/04/14 00:49:33;;;;;;;28.02;13.57;;;;;;;10.29;100.00;99457.56;4812082;29;20039;-85
2022/04/14 00:52:03;;;;;;;27.25;12.52;;;;;;;10.33;100.00;99461.44;4822722;29;20423;-85
2022/04/14 00:54:30;;;;;;;26.48;12.15;;;;;;;10.17;100.00;99430.16;4823785;29;20164;-87
2022/04/14 00:57:01;;;;;;;24.25;12.40;;;;;;;10.40;100.00;99457.13;4819011;29;20034;-86
2022/04/14 00:59:28;;;;;;;21.70;11.57;;;;;;;10.46;100.00;99442.44;4825429;29;20039;-84
2022/04/14 01:01:56;;;;;;;21.75;10.60;;;;;;;10.29;100.00;99405.09;4820607;29;20122;-85
2022/04/14 01:04:22;;;;;;;22.42;10.75;;;;;;;10.55;100.00;99451.88;4804668;29;20038;-85
2022/04/14 01:06:48;;;;;;;19.55;11.07;;;;;;;10.45;100.00;99440.03;4808932;29;20049;-86
2022/04/14 01:09:18;;;;;;;21.80;10.57;;;;;;;10.57;100.00;99454.28;4809958;29;20034;-84
2022/04/14 01:11:52;;;;;;;17.20;8.68;;;;;;;10.43;100.00;99448.91;4818360;29;20053;-85
2022/04/14 01:14:39;;;;;;;16.65;8.25;;;;;;;10.37;100.00;99467.16;4780808;29;20126;-84
2022/04/14 01:17:07;;;;;;;15.35;7.28;;;;;;;10.09;100.00;99460.75;4798169;29;20103;-84
2022/04/14 01:19:33;;;;;;;14.55;7.22;;;;;;;10.04;100.00;99470.97;4785750;29;20038;-85
2022/04/14 01:22:30;;;;;;;14.05;6.18;;;;;;;9.99;100.00;99462.81;4803953;29;20133;-84
2022/04/14 01:24:57;;;;;;;12.90;6.13;;;;;;;9.80;100.00;99453.66;4796087;29;20038;-85
2022/04/14 01:27:25;;;;;;;18.90;6.13;;;;;;;9.91;100.00;99471.56;4798814;29;20099;-85
2022/04/14 01:29:51;;;;;;;11.63;5.65;;;;;;;9.81;100.00;99447.44;4827885;29;20489;-86
2022/04/14 01:32:22;;;;;;;15.25;7.07;;;;;;;9.97;100.00;99463.00;4806558;29;20034;-86
2022/04/14 01:34:49;;;;;;;15.68;7.22;;;;;;;9.89;100.00;99434.22;4790792;29;20451;-87
2022/04/14 01:37:15;;;;;;;15.85;6.55;;;;;;;10.06;100.00;99453.22;4802017;29;20039;-85
2022/04/14 01:39:41;;;;;;;16.10;7.55;;;;;;;9.97;100.00;99438.56;4813778;29;20103;-84
2022/04/14 01:42:08;;;;;;;17.77;9.43;;;;;;;10.02;100.00;99438.84;4783359;29;20042;-84
2022/04/14 01:44:35;;;;;;;18.63;8.68;;;;;;;10.10;100.00;99469.41;4824471;29;20039;-86
2022/04/14 01:47:01;;;;;;;17.42;8.90;;;;;;;10.04;100.00;99465.72;4790875;29;20054;-85
2022/04/14 01:49:27;;;;;;;16.10;9.20;;;;;;;9.88;100.00;99429.97;4817746;29;20038;-86
2022/04/14 01:51:53;;;;;;;18.58;9.68;;;;;;;9.94;100.00;99438.94;4822875;29;20095;-84
2022/04/14 01:54:19;;;;;;;23.67;9.98;;;;;;;10.15;100.00;99474.94;4813458;29;20022;-84
2022/04/14 01:56:46;;;;;;;19.85;10.35;;;;;;;10.19;100.00;99470.13;4821676;29;20531;-84
2022/04/14 01:59:12;;;;;;;19.13;10.27;;;;;;;10.13;100.00;99448.88;4797647;29;20047;-86
2022/04/14 02:01:38;;;;;;;17.42;9.25;;;;;;;10.09;100.00;99452.88;4818333;29;20039;-85
2022/04/14 02:04:05;;;;;;;21.00;10.07;;;;;;;10.29;100.00;99474.09;4809015;29;20134;-86
2022/04/14 02:06:32;;;;;;;20.73;9.98;;;;;;;10.19;100.00;99449.97;4812421;29;20534;-86
2022/04/14 02:08:57;;;;;;;21.35;9.82;;;;;;;10.15;100.00;99444.25;4801121;29;20043;-84
2022/04/14 02:11:23;;;;;;;24.00;11.40;;;;;;;10.12;100.00;99452.50;4827610;29;20030;-86
2022/04/14 02:13:49;;;;;;;25.00;11.25;;;;;;;10.05;100.00;99435.03;4797745;29;20038;-86
2022/04/14 02:16:17;;;;;;;32.28;11.40;;;;;;;9.95;100.00;99430.06;4793138;29;20039;-85
2022/04/14 02:18:43;;;;;;;19.60;10.93;;;;;;;9.83;100.00;99437.56;4814262;29;20044;-86
2022/04/14 02:21:09;;;;;;;20.52;10.40;;;;;;;9.88;100.00;99444.91;4826902;29;20038;-85
2022/04/14 02:23:35;;;;;;;21.77;11.93;;;;;;;9.78;100.00;99443.34;4796898;29;20043;-85
2022/04/14 02:26:01;;;;;;;22.13;11.27;;;;;;;9.89;100.00;99446.53;4813810;29;20106;-86
2022/04/14 02:28:26;;;;;;;21.27;10.32;;;;;;;9.91;100.00;99445.34;4817773;29;20566;-86
2022/04/14 02:30:52;;;;;;;20.60;10.23;;;;;;;9.92;100.00;99443.53;4809157;29;20065;-85
2022/04/14 02:33:17;;;;;;;20.35;11.75;;;;;;;9.82;100.00;99436.75;4808187;29;20070;-87
2022/04/14 02:35:44;;;;;;;20.40;11.38;;;;;;;9.93;100.00;99453.03;4777330;29;20039;-88
2022/04/14 02:38:09;;;;;;;19.08;10.18;;;;;;;9.84;100.00;99449.69;4798014;29;20121;-86
2022/04/14 02:40:35;;;;;;;28.63;11.40;;;;;;;9.74;100.00;99457.81;4826551;29;20095;-87
2022/04/14 02:43:00;;;;;;;22.55;11.07;;;;;;;9.76;100.00;99455.81;4810507;29;20034;-86
2022/04/14 02:45:27;;;;;;;21.50;11.23;;;;;;;9.83;100.00;99462.00;4826736;29;20035;-87
2022/04/14 02:47:53;;;;;;;23.92;11.65;;;;;;;9.81;100.00;99471.81;4826652;29;20061;-84
2022/04/14 02:50:20;;;;;;;24.02;13.65;;;;;;;9.92;100.00;99488.13;4804953;29;20045;-86
2022/04/14 02:52:50;;;;;;;26.63;15.10;;;;;;;9.61;100.00;99463.66;4795786;29;20107;-86
2022/04/14 02:55:19;;;;;;;32.13;17.30;;;;;;;9.65;100.00;99477.25;4792136;29;20436;-86
2022/04/14 02:57:45;;;;;;;33.55;17.88;;;;;;;9.50;100.00;99457.03;4824632;29;20041;-84
2022/04/14 03:00:11;;;;;;;39.47;20.13;;;;;;;9.64;100.00;99470.38;4815728;29;20039;-86
2022/04/14 03:02:38;;;;;;;37.72;19.85;;;;;;;9.80;100.00;99487.75;4806500;29;20402;-85
2022/04/14 03:05:04;;;;;;;37.70;19.48;;;;;;;9.68;100.00;99467.19;4806118;29;20035;-84
2022/04/14 03:07:31;;;;;;;32.80;20.60;;;;;;;9.71;100.00;99463.41;4826170;29;20513;-85
2022/04/14 03:09:56;;;;;;;39.72;21.50;;;;;;;9.73;100.00;99458.81;4825099;29;20038;-86
2022/04/14 03:12:22;;;;;;;41.50;22.90;;;;;;;9.66;100.00;99452.66;4803884;29;20045;-83
2022/04/14 03:14:48;;;;;;;39.05;22.15;;;;;;;9.75;100.00;99475.16;4802397;29;20034;-84
2022/04/14 03:17:13;;;;;;;42.22;22.02;;;;;;;9.74;100.00;99468.28;4803336;29;20049;-84
2022/04/14 03:19:39;;;;;;;38.40;20.70;;;;;;;9.81;100.00;99482.31;4785409;29;20027;-86
2022/04/14 03:22:05;;;;;;;38.13;21.23;;;;;;;9.82;100.00;99472.66;4816272;29;20042;-84
2022/04/14 03:24:31;;;;;;;36.72;22.00;;;;;;;9.78;100.00;99459.06;4811998;29;20087;-85
2022/04/14 03:26:56;;;;;;;41.70;21.02;;;;;;;9.85;100.00;99480.97;4814690;29;20030;-85
2022/04/14 03:29:22;;;;;;;44.42;22.33;;;;;;;9.71;100.00;99472.06;4802073;29;20041;-85
2022/04/14 03:31:48;;;;;;;41.00;23.05;;;;;;;9.80;100.00;99474.63;4785981;29;20076;-85
2022/04/14 03:34:14;;;;;;;42.33;21.67;;;;;;;9.70;100.00;99459.97;4802173;29;20031;-85
2022/04/14 03:36:39;;;;;;;43.47;22.00;;;;;;;9.64;100.00;99449.41;4797607;29;20039;-84
2022/04/14 03:39:05;;;;;;;41.08;22.13;;;;;;;9.83;100.00;99482.97;4795638;29;20034;-85
2022/04/14 03:41:31;;;;;;;37.05;21.38;;;;;;;9.92;100.00;99477.63;4814858;29;20035;-84
2022/04/14 03:43:57;;;;;;;44.65;22.27;;;;;;;9.83;100.00;99464.63;4822843;29;20042;-87
2022/04/14 03:46:23;;;;;;;47.50;23.58;;;;;;;9.89;100.00;99462.25;4801483;29;20046;-85
2022/04/14 03:48:49;;;;;;;40.85;21.77;;;;;;;9.91;100.00;99461.06;4794713;29;20126;-83
2022/04/14 03:51:14;;;;;;;43.55;22.48;;;;;;;9.81;100.00;99450.84;4816807;29;20460;-85
2022/04/14 03:53:41;;;;;;;43.15;22.10;;;;;;;9.89;100.00;99465.69;4809658;29;20456;-84
2022/04/14 03:56:06;;;;;;;42.05;22.17;;;;;;;9.81;100.00;99450.06;4805741;29;20066;-83
2022/04/14 03:58:32;;;;;;;42.42;21.85;;;;;;;10.07;100.00;99485.50;4804560;29;20077;-83
2022/04/14 04:00:58;;;;;;;44.65;21.02;;;;;;;9.92;100.00;99473.19;4783279;29;20588;-83
2022/04/14 04:03:24;;;;;;;41.03;20.08;;;;;;;9.83;100.00;99458.53;4802201;29;20054;-84
2022/04/14 04:05:50;;;;;;;38.63;20.80;;;;;;;9.75;100.00;99453.41;4814625;29;20147;-85
2022/04/14 04:08:19;;;;;;;38.72;22.70;;;;;;;9.84;100.00;99479.34;4796909;29;20038;-84
2022/04/14 04:10:45;;;;;;;42.47;21.92;;;;;;;9.86;100.00;99477.38;4778616;29;20031;-84
2022/04/14 04:13:11;;;;;;;41.35;20.02;;;;;;;9.88;100.00;99471.13;4800791;29;20034;-84
2022/04/14 04:15:36;;;;;;;41.45;21.23;;;;;;;10.00;100.00;99482.78;4827998;29;20027;-85
2022/04/14 04:18:06;;;;;;;36.65;20.10;;;;;;;9.80;100.00;99472.81;4804708;29;20045;-82
2022/04/14 04:20:32;;;;;;;37.03;19.35;;;;;;;9.81;100.00;99471.81;4819310;29;20041;-85
2022/04/14 04:22:58;;;;;;;34.72;19.08;;;;;;;9.86;100.00;99464.25;4814790;29;20117;-85
2022/04/14 04:25:23;;;;;;;34.45;19.40;;;;;;;9.81;100.00;99484.94;4804246;29;20129;-84
2022/04/14 04:27:49;;;;;;;42.85;20.88;;;;;;;9.91;100.00;99489.13;4798604;29;20120;-83
2022/04/14 04:30:15;;;;;;;42.22;20.17;;;;;;;10.11;100.00;99498.09;4801571;29;20497;-85
2022/04/14 04:32:41;;;;;;;42.28;19.27;;;;;;;9.95;100.00;99493.00;4782823;29;20399;-84
2022/04/14 04:35:07;;;;;;;42.85;20.25;;;;;;;9.88;100.00;99492.09;4811400;29;20054;-85
2022/04/14 04:37:33;;;;;;;42.58;20.55;;;;;;;9.89;100.00;99506.84;4801413;29;20041;-84
2022/04/14 04:39:59;;;;;;;39.63;20.38;;;;;;;9.86;100.00;99500.97;4782775;29;20113;-85
2022/04/14 04:42:24;;;;;;;41.15;20.77;;;;;;;9.82;100.00;99489.19;4802076;29;20034;-86
2022/04/14 04:44:50;;;;;;;37.72;21.00;;;;;;;9.88;100.00;99507.84;4806475;29;20038;-84
2022/04/14 04:47:20;;;;;;;41.70;20.38;;;;;;;9.87;100.00;99501.75;4807494;29;20201;-84
2022/04/14 04:49:46;;;;;;;41.60;19.58;;;;;;;9.83;100.00;99498.69;4823522;29;20058;-84
2022/04/14 04:52:12;;;;;;;42.10;19.98;;;;;;;9.93;100.00;99495.81;4790268;29;20121;-86
2022/04/14 04:54:38;;;;;;;42.10;20.23;;;;;;;9.95;100.00;99496.47;4795126;29;20118;-84
2022/04/14 04:57:04;;;;;;;41.67;20.55;;;;;;;9.97;100.00;99485.78;4822307;29;20043;-85
2022/04/14 04:59:31;;;;;;;37.90;19.83;;;;;;;10.12;100.00;99493.66;4801239;29;20063;-83
2022/04/14 05:01:56;;;;;;;47.42;20.33;;;;;;;10.17;100.00;99478.19;4810376;29;20050;-84
2022/04/14 05:04:22;;;;;;;45.13;20.80;;;;;;;10.20;100.00;99484.88;4807528;29;20042;-85
2022/04/14 05:06:48;;;;;;;42.85;20.70;;;;;;;10.19;100.00;99468.34;4823373;29;20038;-84
2022/04/14 05:09:14;;;;;;;44.58;21.27;;;;;;;10.17;100.00;99477.38;4824947;29;20053;-85
2022/04/14 05:11:39;;;;;;;42.00;20.02;;;;;;;10.34;100.00;99499.00;4786493;29;20034;-84
2022/04/14 05:14:05;;;;;;;36.13;19.25;;;;;;;10.25;100.00;99524.53;4816665;29;20129;-86
2022/04/14 05:16:30;;;;;;;33.38;19.00;;;;;;;9.90;100.00;99495.34;4811115;29;20099;-86
2022/04/14 05:18:56;;;;;;;38.22;18.63;;;;;;;9.62;100.00;99475.78;4813902;29;20031;-85
2022/04/14 05:21:21;;;;;;;40.42;20.52;;;;;;;9.55;100.00;99494.00;4793172;29;20141;-86
2022/04/14 05:23:47;;;;;;;36.47;19.05;;;;;;;9.47;100.00;99464.44;4796667;29;20038;-85
2022/04/14 05:26:12;;;;;;;39.20;21.08;;;;;;;9.81;100.00;99513.78;4784357;29;20137;-85
2022/04/14 05:28:38;;;;;;;37.33;19.80;;;;;;;9.79;100.00;99493.97;4811164;29;20113;-84
2022/04/14 05:31:04;;;;;;;42.67;20.70;;;;;;;9.76;100.00;99482.03;4824881;29;20041;-85
2022/04/14 05:33:29;;;;;;;46.55;20.95;;;;;;;9.95;100.00;99499.06;4801386;29;20027;-84
2022/04/14 05:35:55;;;;;;;39.22;20.30;;;;;;;10.08;100.00;99508.13;4810151;29;20038;-83
2022/04/14 05:38:21;;;;;;;38.67;20.65;;;;;;;9.97;100.00;99497.09;4794543;29;20031;-87
2022/04/14 05:40:46;;;;;;;39.83;20.55;;;;;;;9.99;100.00;99505.59;4805091;29;20095;-87
2022/04/14 05:43:19;;;;;;;37.72;18.85;;;;;;;10.08;100.00;99516.81;4805569;29;20374;-87
2022/04/14 05:45:47;;;;;;;38.50;20.20;;;;;;;10.12;100.00;99514.63;4793325;29;20497;-86
2022/04/14 05:48:17;;;;;;;42.35;23.58;;;;;;;10.18;100.00;99523.59;4795727;29;20139;-84
2022/04/14 05:50:46;;;;;;;47.08;22.70;;;;;;;10.20;100.00;99526.84;4811910;29;20057;-85
2022/04/14 05:53:13;;;;;;;48.25;24.48;;;;;;;10.20;100.00;99522.44;4782709;29;20498;-83
2022/04/14 05:55:40;;;;;;;54.78;27.50;;;;;;;10.41;100.00;99523.56;4786709;29;20398;-84
2022/04/14 05:58:08;;;;;;;48.72;25.30;;;;;;;10.45;100.00;99519.56;4782512;29;20423;-84
2022/04/14 06:00:34;;;;;;;53.13;25.65;;;;;;;10.77;100.00;99537.72;4814716;29;20034;-86
2022/04/14 06:03:01;;;;;;;47.13;22.90;;;;;;;10.92;100.00;99543.78;4799641;29;20038;-83
2022/04/14 06:05:27;;;;;;;43.33;22.40;;;;;;;11.13;100.00;99539.56;4797287;29;20042;-84
2022/04/14 06:07:54;;;;;;;48.80;23.27;;;;;;;11.27;100.00;99538.72;4799421;29;20486;-83
2022/04/14 06:10:19;;;;;;;39.78;19.52;;;;;;;11.40;100.00;99527.50;4814117;29;20038;-83
2022/04/14 06:12:45;;;;;;;39.42;20.45;;;;;;;11.53;100.00;99532.06;4817154;29;20038;-83
2022/04/14 06:15:11;;;;;;;36.97;20.00;;;;;;;11.64;100.00;99543.09;4800359;29;20041;-83
2022/04/14 06:17:37;;;;;;;35.67;18.98;;;;;;;11.61;100.00;99536.38;4785569;29;20082;-82
2022/04/14 06:20:03;;;;;;;34.83;19.85;;;;;;;11.74;100.00;99538.31;4798243;29;20047;-82
2022/04/14 06:22:30;;;;;;;34.67;19.60;;;;;;;11.68;100.00;99528.56;4796583;29;20427;-84
2022/04/14 06:24:58;;;;;;;39.08;20.25;;;;;;;11.85;100.00;99550.13;4785368;29;20061;-85
2022/04/14 06:27:24;;;;;;;40.67;20.85;;;;;;;11.98;100.00;99538.91;4785497;29;20081;-88
2022/04/14 06:29:50;;;;;;;36.97;20.83;;;;;;;12.13;100.00;99547.53;4792608;29;20421;-83
2022/04/14 06:32:15;;;;;;;36.55;20.80;;;;;;;12.32;100.00;99547.88;4803525;29;20062;-85
2022/04/14 06:34:41;;;;;;;45.58;22.80;;;;;;;12.66;100.00;99555.94;4801349;29;20030;-86
2022/04/14 06:37:07;;;;;;;38.95;21.70;;;;;;;12.88;100.00;99548.75;4803611;29;20043;-84
2022/04/14 06:39:33;;;;;;;35.50;20.83;;;;;;;13.09;100.00;99560.16;4798774;29;20057;-84
2022/04/14 06:41:58;;;;;;;37.47;22.80;;;;;;;13.21;100.00;99549.88;4800291;29;20045;-85
2022/04/14 06:44:24;;;;;;;31.67;18.92;;;;;;;13.35;100.00;99553.34;4814688;29;20110;-85
2022/04/14 06:46:50;;;;;;;30.75;17.67;;;;;;;13.52;100.00;99557.25;4821215;29;20054;-85
2022/04/14 06:49:16;;;;;;;26.90;16.65;;;;;;;13.42;100.00;99533.09;4809471;29;20030;-87
2022/04/14 06:51:42;;;;;;;28.30;16.75;;;;;;;13.43;100.00;99524.19;4806832;29;20125;-85
2022/04/14 06:54:07;;;;;;;25.88;16.52;;;;;;;13.73;100.00;99555.44;4784335;29;20211;-87
2022/04/14 06:56:33;;;;;;;29.25;16.45;;;;;;;13.79;100.00;99551.19;4784665;29;20041;-84
2022/04/14 06:58:59;;;;;;;25.30;15.30;;;;;;;13.96;100.00;99557.69;4822486;29;20027;-85
2022/04/14 07:01:24;;;;;;;31.17;18.13;;;;;;;13.97;100.00;99545.31;4815955;29;20061;-86
2022/04/14 07:03:50;;;;;;;33.25;18.40;;;;;;;14.27;100.00;99565.97;4798121;29;20095;-85
2022/04/14 07:06:16;;;;;;;31.30;18.17;;;;;;;14.40;100.00;99568.59;4783067;29;20049;-86
2022/04/14 07:08:44;;;;;;;28.38;17.95;;;;;;;14.34;100.00;99550.91;4786195;29;20091;-86
2022/04/14 07:11:10;;;;;;;34.85;18.67;;;;;;;14.49;100.00;99573.66;4783406;29;20047;-87
2022/04/14 07:13:36;;;;;;;32.83;18.48;;;;;;;14.56;100.00;99572.63;4776595;29;20039;-85
2022/04/14 07:16:02;;;;;;;33.28;19.27;;;;;;;14.58;100.00;99569.78;4776896;29;20047;-86
2022/04/14 07:18:28;;;;;;;30.77;17.90;;;;;;;14.74;100.00;99573.81;4776589;29;20085;-85
2022/04/14 07:20:54;;;;;;;29.73;18.48;;;;;;;14.79;100.00;99578.47;4797336;29;20066;-84
2022/04/14 07:23:20;;;;;;;33.80;18.35;;;;;;;14.83;100.00;99575.19;4799590;29;20035;-87
2022/04/14 07:25:46;;;;;;;34.88;16.67;;;;;;;14.74;100.00;99554.50;4806828;29;20042;-88
2022/04/14 07:28:13;;;;;;;27.75;16.58;;;;;;;14.99;100.00;99570.47;4776290;29;20081;-87
2022/04/14 07:30:39;;;;;;;33.20;17.42;;;;;;;15.23;100.00;99574.22;4779007;29;20037;-85
2022/04/14 07:33:06;;;;;;;27.08;17.13;;;;;;;15.44;100.00;99584.69;4819375;29;20049;-87
2022/04/14 07:35:32;;;;;;;26.50;17.48;;;;;;;15.56;100.00;99583.78;4795263;29;20026;-87
2022/04/14 07:37:59;;;;;;;25.55;16.38;;;;;;;15.72;100.00;99581.63;4801706;29;20034;-87
2022/04/14 07:40:25;;;;;;;24.52;15.05;;;;;;;15.90;100.00;99578.28;4784405;29;20047;-88
2022/04/14 07:42:51;;;;;;;32.95;17.15;;;;;;;15.91;100.00;99563.19;4797610;29;20419;-88
2022/04/14 07:45:18;;;;;;;25.02;15.20;;;;;;;16.13;100.00;99556.50;4807963;29;20045;-90
2022/04/14 07:47:45;;;;;;;34.53;17.27;;;;;;;15.95;100.00;99567.84;4793033;29;20082;-89
2022/04/14 07:50:12;;;;;;;27.50;15.50;;;;;;;15.90;100.00;99554.44;4790336;29;20513;-88
2022/04/14 07:52:45;;;;;;;27.85;15.90;;;;;;;16.17;100.00;99579.88;4811382;29;20034;-88
2022/04/14 07:55:11;;;;;;;26.00;16.43;;;;;;;16.02;100.00;99559.84;4796445;29;20045;-88
2022/04/14 07:57:37;;;;;;;26.50;15.35;;;;;;;15.82;100.00;99559.97;4812801;29;20042;-87
2022/04/14 08:00:05;;;;;;;23.92;14.32;;;;;;;15.91;100.00;99560.53;4795280;29;20038;-89
2022/04/14 08:02:45;;;;;;;21.48;13.60;;;;;;;15.99;100.00;99568.22;4789657;29;20043;-89
2022/04/14 08:05:13;;;;;;;20.08;12.95;;;;;;;15.85;100.00;99538.38;4788274;29;20035;-87
2022/04/14 08:07:39;;;;;;;22.38;13.75;;;;;;;16.27;100.00;99561.63;4817920;29;20038;-84
2022/04/14 08:10:05;;;;;;;23.90;13.60;;;;;;;16.52;100.00;99580.13;4817611;29;20435;-86
2022/04/14 08:12:30;;;;;;;20.30;13.85;;;;;;;16.45;100.00;99562.69;4816962;29;20041;-85
2022/04/14 08:14:56;;;;;;;20.88;13.68;;;;;;;16.38;100.00;99574.19;4798108;29;20422;-85
2022/04/14 08:17:22;;;;;;;22.58;13.40;;;;;;;16.50;100.00;99570.78;4795002;29;20427;-86
2022/04/14 08:19:48;;;;;;;20.63;14.30;;;;;;;16.35;100.00;99579.91;4816669;29;20117;-86
2022/04/14 08:22:13;;;;;;;19.15;12.82;;;;;;;16.46;100.00;99581.03;4803211;29;20042;-87
2022/04/14 08:24:39;;;;;;;20.45;12.48;;;;;;;16.47;100.00;99569.41;4817934;29;20039;-85
2022/04/14 08:27:05;;;;;;;18.38;13.07;;;;;;;16.45;100.00;99578.59;4818144;29;20490;-85
2022/04/14 08:29:31;;;;;;;21.98;13.25;;;;;;;16.57;100.00;99571.53;4801037;29;20062;-85
2022/04/14 08:31:57;;;;;;;28.17;17.08;;;;;;;16.51;100.00;99556.53;4802866;29;20085;-86
2022/04/14 08:34:25;;;;;;;26.40;15.77;;;;;;;16.68;100.00;99576.09;4815412;29;20099;-84
2022/04/14 08:36:55;;;;;;;27.10;16.17;;;;;;;16.62;100.00;99574.31;4814024;29;20121;-85
2022/04/14 08:39:21;;;;;;;27.15;15.38;;;;;;;16.52;100.00;99577.50;4815674;29;20054;-84
2022/04/14 08:41:54;;;;;;;34.00;16.80;;;;;;;16.45;100.00;99579.41;4815755;29;20618;-85
2022/04/14 08:44:21;;;;;;;;;;;;;;;16.36;100.00;99580.72;4814725;29;20091;-84
2022/04/14 08:46:48;;;;;;;24.35;14.43;;;;;;;16.53;100.00;99579.09;4811166;29;19921;-85
2022/04/14 08:49:16;;;;;;;28.92;15.52;;;;;;;16.70;100.00;99574.03;4801595;29;20039;-85
2022/04/14 08:51:42;;;;;;;23.48;14.55;;;;;;;16.72;100.00;99565.06;4801723;29;20125;-84
2022/04/14 08:54:09;;;;;;;22.80;13.20;;;;;;;16.92;100.00;99575.41;4820552;29;20462;-85
2022/04/14 08:56:35;;;;;;;23.55;14.23;;;;;;;16.87;100.00;99573.41;4803955;29;20456;-85
2022/04/14 08:59:02;;;;;;;21.70;13.75;;;;;;;16.78;100.00;99572.13;4819795;29;20079;-84
2022/04/14 09:01:27;;;;;;;21.08;12.82;;;;;;;16.82;100.00;99568.81;4818833;29;20065;-84
2022/04/14 09:03:55;;;;;;;18.08;11.82;;;;;;;16.92;100.00;99562.97;4816154;29;20034;-84
2022/04/14 09:06:22;;;;;;;17.88;13.15;;;;;;;17.12;100.00;99572.53;4815924;29;20038;-85
2022/04/14 09:08:48;;;;;;;21.50;12.82;;;;;;;17.04;100.00;99567.53;4817282;29;20049;-85
2022/04/14 09:11:14;;;;;;;19.77;11.85;;;;;;;17.24;100.00;99565.44;4819459;29;20034;-86
2022/04/14 09:13:43;;;;;;;18.35;10.90;;;;;;;17.37;100.00;99575.03;4786968;29;20042;-84
2022/04/14 09:16:09;;;;;;;21.20;12.38;;;;;;;17.37;100.00;99584.84;4799691;29;20474;-84
2022/04/14 09:18:35;;;;;;;24.38;13.40;;;;;;;17.42;100.00;99564.56;4817006;29;20468;-84
2022/04/14 09:21:03;;;;;;;17.48;13.00;;;;;;;17.77;100.00;99583.44;4819316;29;20109;-85
2022/04/14 09:23:31;;;;;;;18.52;12.85;;;;;;;17.95;100.00;99572.72;4816020;29;20061;-84
2022/04/14 09:26:06;;;;;;;16.30;11.25;;;;;;;18.48;100.00;99588.00;4800453;29;20066;-85
2022/04/14 09:28:31;;;;;;;16.38;10.90;;;;;;;18.63;100.00;99585.66;4821431;29;20035;-84
2022/04/14 09:30:57;;;;;;;18.02;10.88;;;;;;;18.89;100.00;99586.19;4780656;29;20031;-85
2022/04/14 09:33:23;;;;;;;17.25;11.30;;;;;;;19.03;100.00;99583.25;4819724;29;20049;-85
2022/04/14 09:36:11;;;;;;;14.27;9.70;;;;;;;19.03;100.00;99588.56;4814325;29;20045;-84
2022/04/14 09:38:55;;;;;;;13.23;8.50;;;;;;;18.95;100.00;99590.56;4792060;29;20050;-84
2022/04/14 09:41:40;;;;;;;11.65;7.82;;;;;;;18.86;100.00;99578.66;4816051;29;20046;-85
2022/04/14 09:44:15;;;;;;;10.15;7.30;;;;;;;19.04;100.00;99592.84;4814146;29;20394;-84
2022/04/14 09:46:46;;;;;;;10.07;6.10;;;;;;;18.73;100.00;99592.22;4802089;29;20368;-84
2022/04/14 09:49:14;;;;;;;9.75;6.07;;;;;;;18.65;100.00;99588.09;4822355;29;20560;-85
2022/04/14 09:51:48;;;;;;;11.68;6.50;;;;;;;18.76;100.00;99589.09;4820179;29;20041;-84
2022/04/14 09:54:16;;;;;;;11.52;6.40;;;;;;;18.76;100.00;99586.44;4813651;29;20478;-84
2022/04/14 09:56:44;;;;;;;7.93;4.85;;;;;;;18.87;100.00;99596.25;4814599;29;20031;-84
2022/04/14 09:59:12;;;;;;;8.68;5.25;;;;;;;18.63;96.69;99596.28;4801273;29;20490;-84
2022/04/14 10:01:39;;;;;;;7.22;5.78;;;;;;;18.93;97.14;99608.59;4800040;29;20043;-82
2022/04/14 10:04:06;;;;;;;9.05;6.15;;;;;;;18.84;98.47;99610.81;4824044;29;20034;-83
2022/04/14 10:06:32;;;;;;;8.48;5.70;;;;;;;18.95;96.67;99598.53;4806803;29;20049;-83
2022/04/14 10:08:57;;;;;;;5.22;4.72;;;;;;;18.79;94.99;99602.75;4819364;29;20042;-85
2022/04/14 10:11:30;;;;;;;6.47;5.75;;;;;;;18.36;93.54;99618.06;4803992;29;20090;-85
2022/04/14 10:14:12;;;;;;;7.45;5.70;;;;;;;18.27;93.88;99604.31;4802599;29;20045;-86
2022/04/14 10:16:40;;;;;;;6.30;5.50;;;;;;;18.63;94.62;99616.75;4816226;29;20034;-85
2022/04/14 10:19:08;;;;;;;6.13;5.50;;;;;;;18.96;95.84;99608.13;4803421;29;20470;-85
2022/04/14 10:21:36;;;;;;;8.25;7.35;;;;;;;18.72;92.62;99614.56;4812811;29;20117;-83
2022/04/14 10:24:02;;;;;;;8.93;6.53;;;;;;;18.81;91.91;99605.97;4815928;29;20098;-85
2022/04/14 10:26:28;;;;;;;5.97;5.38;;;;;;;19.03;94.01;99600.03;4796512;29;20051;-85
2022/04/14 10:28:55;;;;;;;7.13;6.03;;;;;;;19.27;93.58;99611.41;4798229;29;20068;-86
2022/04/14 10:31:21;;;;;;;8.05;6.15;;;;;;;19.49;91.40;99608.06;4821196;29;20046;-85
2022/04/14 10:33:50;;;;;;;7.00;6.15;;;;;;;19.60;93.02;99605.56;4811608;29;20042;-86
2022/04/14 10:36:16;;;;;;;7.07;6.38;;;;;;;19.49;90.63;99597.41;4798121;29;20537;-85
2022/04/14 10:38:45;;;;;;;7.07;6.38;;;;;;;19.58;93.65;99591.69;4798864;29;20166;-84
2022/04/14 10:41:22;;;;;;;7.25;6.55;;;;;;;19.51;93.11;99587.34;4815132;29;20038;-85
2022/04/14 10:43:48;;;;;;;6.85;6.20;;;;;;;19.92;91.91;99594.41;4801014;29;20054;-85
2022/04/14 10:46:15;;;;;;;8.25;5.45;;;;;;;20.45;90.37;99597.56;4818218;29;20478;-86
2022/04/14 10:48:43;;;;;;;6.60;6.00;;;;;;;20.65;89.51;99599.69;4822283;29;20053;-85
2022/04/14 10:51:19;;;;;;;6.57;5.93;;;;;;;21.13;85.79;99596.53;4784998;29;20054;-85
2022/04/14 10:53:58;;;;;;;6.88;5.47;;;;;;;21.35;87.25;99593.00;4796705;29;20117;-85
2022/04/14 10:56:41;;;;;;;7.13;6.53;;;;;;;20.76;82.96;99602.47;4815477;29;20027;-85
2022/04/14 10:59:17;;;;;;;6.38;5.88;;;;;;;20.81;82.91;99594.56;4782159;29;20099;-85
2022/04/14 11:01:46;;;;;;;7.10;5.90;;;;;;;21.22;83.72;99605.72;4814550;29;20042;-85
2022/04/14 11:04:27;;;;;;;7.05;5.40;;;;;;;20.68;82.69;99611.72;4813623;29;20041;-85
2022/04/14 11:06:58;;;;;;;5.80;5.15;;;;;;;20.75;82.46;99615.03;4814689;29;20049;-84
2022/04/14 11:09:42;;;;;;;5.60;5.20;;;;;;;20.50;83.09;99610.94;4799133;29;20045;-85
2022/04/14 11:12:11;;;;;;;;;;;;;;;19.90;85.11;99613.25;4813205;29;20038;-84
2022/04/14 11:14:56;;;;;;;5.15;4.80;;;;;;;19.98;86.52;99617.41;4795454;29;19928;-85
2022/04/14 11:17:34;;;;;;;4.97;4.47;;;;;;;19.98;87.44;99620.06;4813826;29;20446;-84